Weather Underground® Station Historical Data


Station Historical Data For Bruceton, TN. (K3JAE's Weather Station - KTNBRUCE2)
 
Daily Summary for:  July 25, 2017 Units:  English    Metric   Both
« Previous Day
Next Day »
Daily Weekly Monthly Yearly Custom
  Current: High: Low: Average:
Temperature: 73.3 °F 76.0 °F 72.3 °F 73.8 °F
Dew Point: 69.9 °F 72.5 °F 68.9 °F 70.2 °F
Humidity: 89% 90% 88% 89%
Wind Speed: 0.0mph 1.2mph 0.0mph 0.1mph
Wind Gust: 0.0mph 1.2mph - -
WindCalm - - SW
Pressure: 30.08 in 30.08 in 29.99 in -
Precipitation: 0.00 in      
Historical Graphs
 
 
Tabular Data for:  July 25, 2017
Time Temperature Dew Point Pressure Wind Wind Speed Wind Gust Humidity Rainfall Rate (Hourly) solar Conditions
00:01 76.0 °F 72.5 °F 30.00 in Calm     89% 0.00 in 0.0 W/m2 CLR
00:06 76.0 °F 72.5 °F 29.99 in Calm     89% 0.00 in 0.0 W/m2 CLR
00:11 75.9 °F 72.4 °F 29.99 in Calm     89% 0.00 in 0.0 W/m2 CLR
00:16 75.8 °F 72.3 °F 29.99 in Calm     89% 0.00 in 0.0 W/m2 CLR
00:21 75.7 °F 72.2 °F 29.99 in Calm     89% 0.00 in 0.0 W/m2 CLR
00:26 75.7 °F 72.2 °F 29.99 in Calm     89% 0.00 in 0.0 W/m2 CLR
00:31 75.7 °F 72.2 °F 29.99 in Calm     89% 0.00 in 0.0 W/m2 CLR
00:36 75.6 °F 72.1 °F 29.99 in SW 1.2 mph 1.2 mph 89% 0.00 in 0.0 W/m2 CLR
00:41 75.5 °F 72.0 °F 29.99 in Calm     89% 0.00 in 0.0 W/m2 CLR
00:46 75.4 °F 71.9 °F 30.00 in SW 1.2 mph   89% 0.00 in 0.0 W/m2 CLR
00:51 75.4 °F 71.9 °F 30.00 in Calm     89% 0.00 in 0.0 W/m2 CLR
00:56 75.4 °F 71.9 °F 30.00 in Calm     89% 0.00 in 0.0 W/m2 CLR
01:01 75.4 °F 71.9 °F 30.01 in SW 1.0 mph 1.0 mph 89% 0.00 in 0.0 W/m2 CLR
01:06 75.4 °F 71.9 °F 30.01 in Calm     89% 0.00 in 0.0 W/m2 CLR
01:11 75.4 °F 71.9 °F 30.01 in SW 1.2 mph 1.2 mph 89% 0.00 in 0.0 W/m2 CLR
01:16 75.3 °F 71.8 °F 30.01 in SW 1.0 mph 1.0 mph 89% 0.00 in 0.0 W/m2 CLR
01:21 75.1 °F 71.6 °F 30.01 in Calm     89% 0.00 in 0.0 W/m2 CLR
01:26 75.0 °F 71.5 °F 30.02 in Calm     89% 0.00 in 0.0 W/m2 CLR
01:31 74.9 °F 71.4 °F 30.02 in Calm     89% 0.00 in 0.0 W/m2 CLR
01:36 74.8 °F 71.3 °F 30.02 in Calm     89% 0.00 in 0.0 W/m2 CLR
01:41 74.8 °F 71.3 °F 30.02 in Calm     89% 0.00 in 0.0 W/m2 CLR
01:46 74.8 °F 71.3 °F 30.02 in Calm     89% 0.00 in 0.0 W/m2 CLR
01:51 74.8 °F 71.3 °F 30.02 in Calm     89% 0.00 in 0.0 W/m2 CLR
01:56 74.8 °F 71.3 °F 30.02 in Calm     89% 0.00 in 0.0 W/m2 CLR
02:01 74.8 °F 71.3 °F 30.01 in Calm     89% 0.00 in 0.0 W/m2 CLR
02:06 74.8 °F 71.3 °F 30.01 in Calm     89% 0.00 in 0.0 W/m2 CLR
02:11 74.7 °F 71.2 °F 30.01 in Calm     89% 0.00 in 0.0 W/m2 CLR
02:16 74.7 °F 71.2 °F 30.01 in Calm     89% 0.00 in 0.0 W/m2 CLR
02:21 74.5 °F 71.0 °F 30.01 in Calm     89% 0.00 in 0.0 W/m2 CLR
02:26 74.5 °F 71.0 °F 30.01 in Calm     89% 0.00 in 0.0 W/m2 CLR
02:31 74.4 °F 70.9 °F 30.01 in Calm     89% 0.00 in 0.0 W/m2 CLR
02:36 74.3 °F 70.8 °F 30.01 in Calm     89% 0.00 in 0.0 W/m2 CLR
02:41 74.3 °F 70.8 °F 30.01 in Calm     89% 0.00 in 0.0 W/m2 CLR
02:46 74.3 °F 70.5 °F 30.01 in Calm     88% 0.00 in 0.0 W/m2 CLR
02:51 74.2 °F 70.4 °F 30.01 in Calm     88% 0.00 in 0.0 W/m2 CLR
02:56 74.2 °F 70.4 °F 30.01 in Calm     88% 0.00 in 0.0 W/m2 CLR
03:01 74.1 °F 70.3 °F 30.00 in Calm     88% 0.00 in 0.0 W/m2 CLR
03:06 74.1 °F 70.3 °F 30.00 in Calm     88% 0.00 in 0.0 W/m2 CLR
03:11 74.1 °F 70.3 °F 30.00 in Calm     88% 0.00 in 0.0 W/m2 CLR
03:16 74.0 °F 70.2 °F 30.00 in Calm     88% 0.00 in 0.0 W/m2 CLR
03:21 73.9 °F 70.1 °F 30.01 in Calm     88% 0.00 in 0.0 W/m2 CLR
03:26 73.8 °F 70.0 °F 30.00 in Calm     88% 0.00 in 0.0 W/m2 CLR
03:31 73.7 °F 69.9 °F 30.01 in Calm     88% 0.00 in 0.0 W/m2 CLR
03:36 73.7 °F 69.9 °F 30.01 in Calm     88% 0.00 in 0.0 W/m2 CLR
03:41 73.5 °F 70.1 °F 30.01 in Calm     89% 0.00 in 0.0 W/m2 CLR
03:46 73.3 °F 69.5 °F 30.01 in Calm     88% 0.00 in 0.0 W/m2 CLR
03:48 73.2 °F 69.4 °F 30.01 in Calm     88% 0.00 in 0.0 W/m2 CLR
03:53 73.1 °F 69.3 °F 30.02 in Calm     88% 0.00 in 0.0 W/m2 CLR
03:58 73.1 °F 69.3 °F 30.02 in Calm     88% 0.00 in 0.0 W/m2 CLR
04:03 73.0 °F 69.2 °F 30.02 in Calm     88% 0.00 in 0.0 W/m2 CLR
04:08 73.0 °F 69.2 °F 30.02 in Calm     88% 0.00 in 0.0 W/m2 CLR
04:13 73.0 °F 69.2 °F 30.02 in Calm     88% 0.00 in 0.0 W/m2 CLR
04:18 73.0 °F 69.2 °F 30.03 in Calm     88% 0.00 in 0.0 W/m2 CLR
04:23 73.0 °F 69.2 °F 30.03 in Calm     88% 0.00 in 0.0 W/m2 CLR
04:28 72.9 °F 69.1 °F 30.03 in Calm     88% 0.00 in 0.0 W/m2 CLR
04:33 72.9 °F 69.1 °F 30.03 in Calm     88% 0.00 in 0.0 W/m2 CLR
04:38 72.8 °F 69.0 °F 30.04 in Calm     88% 0.00 in 0.0 W/m2 CLR
04:43 72.8 °F 69.0 °F 30.04 in Calm     88% 0.00 in 0.0 W/m2 CLR
04:48 72.8 °F 69.4 °F 30.04 in Calm     89% 0.00 in 0.0 W/m2 CLR
04:53 72.8 °F 69.4 °F 30.04 in Calm     89% 0.00 in 0.0 W/m2 CLR
04:58 72.8 °F 69.4 °F 30.05 in Calm     89% 0.00 in 0.0 W/m2 CLR
05:03 72.8 °F 69.4 °F 30.05 in Calm     89% 0.00 in 0.0 W/m2 CLR
05:08 72.7 °F 69.3 °F 30.05 in Calm     89% 0.00 in 0.0 W/m2 CLR
05:13 72.7 °F 69.3 °F 30.05 in Calm     89% 0.00 in 0.0 W/m2 CLR
05:19 72.8 °F 69.4 °F 30.05 in Calm     89% 0.00 in 0.0 W/m2 CLR
05:24 72.7 °F 69.3 °F 30.06 in Calm     89% 0.00 in 0.0 W/m2 CLR
05:29 72.7 °F 69.3 °F 30.06 in Calm     89% 0.00 in 0.0 W/m2 CLR
05:34 72.7 °F 69.3 °F 30.06 in Calm     89% 0.00 in 0.0 W/m2 CLR
05:39 72.7 °F 69.3 °F 30.06 in Calm     89% 0.00 in 0.0 W/m2 CLR
05:44 72.7 °F 69.3 °F 30.06 in Calm     89% 0.00 in 0.0 W/m2 CLR
05:49 72.6 °F 69.2 °F 30.06 in Calm     89% 0.00 in 0.0 W/m2 CLR
05:54 72.6 °F 69.2 °F 30.06 in Calm     89% 0.00 in 0.0 W/m2 CLR
05:59 72.5 °F 69.1 °F 30.06 in Calm     89% 0.00 in 0.0 W/m2 CLR
06:04 72.5 °F 69.1 °F 30.06 in Calm     89% 0.00 in 5.0 W/m2 CLR
06:05 72.5 °F 69.1 °F 30.06 in Calm     89% 0.00 in 5.0 W/m2 CLR
06:10 72.4 °F 69.0 °F 30.06 in Calm     89% 0.00 in 7.0 W/m2 CLR
06:15 72.4 °F 69.0 °F 30.06 in Calm     89% 0.00 in 9.0 W/m2 CLR
06:20 72.4 °F 69.0 °F 30.06 in Calm     89% 0.00 in 12.0 W/m2 CLR
06:25 72.3 °F 68.9 °F 30.06 in Calm     89% 0.00 in 16.0 W/m2 CLR
06:30 72.3 °F 68.9 °F 30.07 in Calm     89% 0.00 in 18.0 W/m2 CLR
06:35 72.3 °F 68.9 °F 30.07 in Calm     89% 0.00 in 21.0 W/m2 CLR
06:40 72.3 °F 68.9 °F 30.07 in Calm     89% 0.00 in 25.0 W/m2 CLR
06:45 72.3 °F 68.9 °F 30.07 in Calm     89% 0.00 in 26.0 W/m2 CLR
06:50 72.3 °F 68.9 °F 30.07 in Calm     89% 0.00 in 30.0 W/m2 CLR
06:55 72.5 °F 69.1 °F 30.07 in Calm     89% 0.00 in 33.0 W/m2 CLR
07:00 72.6 °F 69.2 °F 30.07 in Calm     89% 0.00 in 37.0 W/m2 CLR
07:05 72.7 °F 69.3 °F 30.07 in Calm     89% 0.00 in 39.0 W/m2 CLR
07:10 72.9 °F 69.5 °F 30.08 in Calm     89% 0.00 in 40.0 W/m2 CLR
07:15 73.0 °F 69.6 °F 30.08 in Calm     89% 0.00 in 42.0 W/m2 CLR
07:20 73.1 °F 70.0 °F 30.08 in Calm     90% 0.00 in 39.0 W/m2 CLR
07:25 73.3 °F 69.9 °F 30.08 in Calm     89% 0.00 in 39.0 W/m2 CLR
Bruceton, TN. NWS Weather Forecast
Compliments of:  Weather Underground - 4 mb

Interesting Weather Facts
HOTTEST TEMPERATURE EVER RECORDED
The world's highest official temperature is 136°F (58°C) recorded at El Azizia, Libya, on 13 September 1922.